createdAt,value
2023-03-05T00:00:24.292Z,100.00
2023-03-05T00:03:10.743Z,100.00
2023-03-05T00:05:57.782Z,100.00
2023-03-05T00:08:43.971Z,100.00
2023-03-05T00:11:31.530Z,100.00
2023-03-05T00:14:18.239Z,100.00
2023-03-05T00:17:04.385Z,100.00
2023-03-05T00:19:50.675Z,100.00
2023-03-05T00:22:37.311Z,100.00
2023-03-05T00:25:23.583Z,100.00
2023-03-05T00:28:10.236Z,100.00
2023-03-05T00:31:01.091Z,100.00
2023-03-05T00:33:52.466Z,100.00
2023-03-05T00:36:44.102Z,100.00
2023-03-05T00:39:30.405Z,100.00
2023-03-05T00:42:16.549Z,100.00
2023-03-05T00:45:03.028Z,100.00
2023-03-05T00:47:49.357Z,100.00
2023-03-05T00:50:35.540Z,100.00
2023-03-05T00:53:22.460Z,100.00
2023-03-05T00:56:10.931Z,100.00
2023-03-05T00:58:57.774Z,100.00
2023-03-05T01:01:44.493Z,100.00
2023-03-05T01:04:31.100Z,100.00
2023-03-05T01:07:17.507Z,100.00
2023-03-05T01:10:04.839Z,100.00
2023-03-05T01:12:51.288Z,100.00
2023-03-05T01:15:37.604Z,100.00
2023-03-05T01:18:24.150Z,100.00
2023-03-05T01:21:10.991Z,100.00
2023-03-05T01:23:57.356Z,100.00
2023-03-05T01:26:43.606Z,100.00
2023-03-05T01:29:30.137Z,100.00
2023-03-05T01:32:16.774Z,100.00
2023-03-05T01:35:05.801Z,100.00
2023-03-05T01:37:53.426Z,100.00
2023-03-05T01:40:39.647Z,100.00
2023-03-05T01:43:31.320Z,100.00
2023-03-05T01:46:38.311Z,100.00
2023-03-05T01:49:27.891Z,100.00
2023-03-05T01:52:18.052Z,100.00
2023-03-05T01:55:16.925Z,100.00
2023-03-05T01:58:08.082Z,100.00
2023-03-05T02:00:55.586Z,100.00
2023-03-05T02:03:42.817Z,100.00
2023-03-05T02:06:29.657Z,100.00
2023-03-05T02:09:16.053Z,100.00
2023-03-05T02:12:02.248Z,100.00
2023-03-05T02:14:51.552Z,100.00
2023-03-05T02:17:38.031Z,100.00
2023-03-05T02:20:26.382Z,100.00
2023-03-05T02:23:13.724Z,100.00
2023-03-05T02:26:00.555Z,100.00
2023-03-05T02:28:52.235Z,100.00
2023-03-05T02:31:39.084Z,100.00
2023-03-05T02:34:25.302Z,100.00
2023-03-05T02:37:11.856Z,100.00
2023-03-05T02:39:58.959Z,100.00
2023-03-05T02:42:46.663Z,100.00
2023-03-05T02:45:34.056Z,100.00
2023-03-05T02:48:20.888Z,100.00
2023-03-05T02:51:08.154Z,100.00
2023-03-05T02:53:54.679Z,100.00
2023-03-05T02:56:43.617Z,100.00
2023-03-05T02:59:29.936Z,100.00
2023-03-05T03:02:17.073Z,100.00
2023-03-05T03:05:03.363Z,100.00
2023-03-05T03:07:51.089Z,100.00
2023-03-05T03:10:37.352Z,100.00
2023-03-05T03:13:25.171Z,100.00
2023-03-05T03:16:13.682Z,100.00
2023-03-05T03:19:00.143Z,100.00
2023-03-05T03:21:46.626Z,100.00
2023-03-05T03:24:33.974Z,100.00
2023-03-05T03:27:20.226Z,100.00
2023-03-05T03:30:07.519Z,100.00
2023-03-05T03:32:53.697Z,100.00
2023-03-05T03:35:40.078Z,100.00
2023-03-05T03:38:26.696Z,100.00
2023-03-05T03:41:12.793Z,100.00
2023-03-05T03:43:59.028Z,100.00
2023-03-05T03:46:47.406Z,100.00
2023-03-05T03:49:33.596Z,100.00
2023-03-05T03:52:19.936Z,100.00
2023-03-05T03:55:07.035Z,100.00
2023-03-05T03:57:53.558Z,100.00
2023-03-05T04:00:41.567Z,100.00
2023-03-05T04:03:27.797Z,100.00
2023-03-05T04:06:14.904Z,100.00
2023-03-05T04:09:01.279Z,100.00
2023-03-05T04:11:47.558Z,100.00
2023-03-05T04:14:33.978Z,100.00
2023-03-05T04:17:20.372Z,100.00
2023-03-05T04:20:10.190Z,100.00
2023-03-05T04:22:56.611Z,100.00
2023-03-05T04:25:43.263Z,100.00
2023-03-05T04:28:31.212Z,100.00
2023-03-05T04:31:17.808Z,100.00
2023-03-05T04:34:04.151Z,100.00
2023-03-05T04:36:50.530Z,100.00
2023-03-05T04:39:37.291Z,100.00
2023-03-05T04:42:23.550Z,100.00
2023-03-05T04:45:10.700Z,100.00
2023-03-05T04:47:56.982Z,100.00
2023-03-05T04:50:43.135Z,100.00
2023-03-05T04:53:29.457Z,100.00
2023-03-05T04:56:16.257Z,100.00
2023-03-05T04:59:02.554Z,100.00
2023-03-05T05:01:48.989Z,100.00
2023-03-05T05:04:36.040Z,100.00
2023-03-05T05:07:22.437Z,100.00
2023-03-05T05:10:10.043Z,100.00
2023-03-05T05:12:56.381Z,100.00
2023-03-05T05:15:42.930Z,100.00
2023-03-05T05:18:29.362Z,100.00
2023-03-05T05:21:15.912Z,100.00
2023-03-05T05:24:02.260Z,100.00
2023-03-05T05:26:48.564Z,100.00
2023-03-05T05:29:35.242Z,100.00
2023-03-05T05:32:24.053Z,100.00
2023-03-05T05:35:11.089Z,100.00
2023-03-05T05:37:57.380Z,100.00
2023-03-05T05:40:44.167Z,100.00
2023-03-05T05:43:30.870Z,100.00
2023-03-05T05:46:19.998Z,100.00
2023-03-05T05:49:06.265Z,100.00
2023-03-05T05:51:52.384Z,100.00
2023-03-05T05:54:39.632Z,100.00
2023-03-05T05:57:26.040Z,100.00
2023-03-05T06:00:13.938Z,100.00
2023-03-05T06:03:01.116Z,100.00
2023-03-05T06:05:47.718Z,100.00
2023-03-05T06:08:34.024Z,100.00
2023-03-05T06:11:20.985Z,100.00
2023-03-05T06:14:08.636Z,100.00
2023-03-05T06:16:54.876Z,100.00
2023-03-05T06:19:41.248Z,100.00
2023-03-05T06:22:27.910Z,100.00
2023-03-05T06:25:14.189Z,100.00
2023-03-05T06:28:00.635Z,100.00
2023-03-05T06:30:47.236Z,100.00
2023-03-05T06:33:34.284Z,100.00
2023-03-05T06:36:22.124Z,100.00
2023-03-05T06:39:08.612Z,100.00
2023-03-05T06:41:54.896Z,100.00
2023-03-05T06:44:41.885Z,100.00
2023-03-05T06:47:28.244Z,100.00
2023-03-05T06:50:14.884Z,100.00
2023-03-05T06:53:01.339Z,100.00
2023-03-05T06:55:47.488Z,100.00
2023-03-05T06:58:33.984Z,100.00
2023-03-05T07:01:21.157Z,100.00
2023-03-05T07:04:07.633Z,100.00
2023-03-05T07:06:54.212Z,100.00
2023-03-05T07:09:43.564Z,100.00
2023-03-05T07:12:29.729Z,100.00
2023-03-05T07:15:16.204Z,100.00
2023-03-05T07:18:02.456Z,100.00
2023-03-05T07:20:48.909Z,100.00
2023-03-05T07:23:36.556Z,100.00
2023-03-05T07:26:23.956Z,100.00
2023-03-05T07:29:10.684Z,100.00
2023-03-05T07:31:56.921Z,100.00
2023-03-05T07:34:43.352Z,100.00
2023-03-05T07:37:29.772Z,100.00
2023-03-05T07:40:16.208Z,100.00
2023-03-05T07:43:02.782Z,100.00
2023-03-05T07:45:53.625Z,100.00
2023-03-05T07:48:39.901Z,100.00
2023-03-05T07:51:27.429Z,100.00
2023-03-05T07:54:13.928Z,100.00
2023-03-05T07:57:00.373Z,100.00
2023-03-05T07:59:46.901Z,100.00
2023-03-05T08:02:33.221Z,100.00
2023-03-05T08:05:20.008Z,98.62
2023-03-05T08:08:06.918Z,97.57
2023-03-05T08:10:53.269Z,95.13
2023-03-05T08:13:40.172Z,96.11
2023-03-05T08:16:27.642Z,95.44
2023-03-05T08:19:14.112Z,94.54
2023-03-05T08:22:00.411Z,94.65
2023-03-05T08:24:46.898Z,92.89
2023-03-05T08:27:33.343Z,92.87
2023-03-05T08:30:22.355Z,91.63
2023-03-05T08:33:08.688Z,90.91
2023-03-05T08:35:54.839Z,91.38
2023-03-05T08:38:42.016Z,90.79
2023-03-05T08:41:28.540Z,89.86
2023-03-05T08:44:14.817Z,90.58
2023-03-05T08:47:01.268Z,90.47
2023-03-05T08:49:47.551Z,89.01
2023-03-05T08:52:34.231Z,89.30
2023-03-05T08:55:20.594Z,88.42
2023-03-05T08:58:06.913Z,88.52
2023-03-05T09:00:53.397Z,89.20
2023-03-05T09:03:40.287Z,86.71
2023-03-05T09:06:27.718Z,87.87
2023-03-05T09:09:14.160Z,87.68
2023-03-05T09:12:01.178Z,87.95
2023-03-05T09:14:47.442Z,87.72
2023-03-05T09:17:34.881Z,88.74
2023-03-05T09:20:21.217Z,89.12
2023-03-05T09:23:07.435Z,88.77
2023-03-05T09:25:54.129Z,89.87
2023-03-05T09:28:40.876Z,89.77
2023-03-05T09:31:27.250Z,89.95
2023-03-05T09:34:13.984Z,91.11
2023-03-05T09:37:00.738Z,90.46
2023-03-05T09:39:47.003Z,91.12
2023-03-05T09:43:01.308Z,91.11
2023-03-05T09:46:02.209Z,90.84
2023-03-05T09:48:52.058Z,89.80
2023-03-05T09:51:42.060Z,89.83
2023-03-05T09:54:42.261Z,88.81
2023-03-05T09:57:51.955Z,89.21
2023-03-05T10:00:45.316Z,87.10
2023-03-05T10:03:50.496Z,86.60
2023-03-05T10:06:45.718Z,85.89
2023-03-05T10:10:04.869Z,84.73
2023-03-05T10:12:53.644Z,85.03
2023-03-05T10:16:03.004Z,86.65
2023-03-05T10:18:49.364Z,86.44
2023-03-05T10:21:57.218Z,87.85
2023-03-05T10:25:03.504Z,88.29
2023-03-05T10:27:55.206Z,87.80
2023-03-05T10:31:03.787Z,89.45
2023-03-05T10:34:21.139Z,88.25
2023-03-05T10:37:32.281Z,89.31
2023-03-05T10:40:26.713Z,88.82
2023-03-05T10:43:31.411Z,87.24
2023-03-05T10:46:21.764Z,85.84
2023-03-05T10:49:37.959Z,84.55
2023-03-05T10:52:38.121Z,81.98
2023-03-05T10:55:24.599Z,80.81
2023-03-05T10:58:13.499Z,82.30
2023-03-05T11:01:01.604Z,82.21
2023-03-05T11:03:57.846Z,81.40
2023-03-05T11:06:48.217Z,80.62
2023-03-05T11:09:34.545Z,79.69
2023-03-05T11:12:21.834Z,80.29
2023-03-05T11:15:14.033Z,79.21
2023-03-05T11:18:26.660Z,78.79
2023-03-05T11:21:21.115Z,79.24
2023-03-05T11:24:16.969Z,76.62
2023-03-05T11:27:23.060Z,77.03
2023-03-05T11:30:32.558Z,76.79
2023-03-05T11:33:22.500Z,75.79
2023-03-05T11:36:30.521Z,77.13
2023-03-05T11:39:19.471Z,77.00
2023-03-05T11:42:25.050Z,76.75
2023-03-05T11:45:18.625Z,75.88
2023-03-05T11:48:09.435Z,74.94
2023-03-05T11:51:00.876Z,75.83
2023-03-05T11:53:51.857Z,74.69
2023-03-05T11:56:39.159Z,75.62
2023-03-05T11:59:30.207Z,73.99
2023-03-05T12:02:23.093Z,77.24
2023-03-05T12:05:15.646Z,77.10
2023-03-05T12:08:02.875Z,77.69
2023-03-05T12:10:49.310Z,77.80
2023-03-05T12:13:42.466Z,77.19
2023-03-05T12:16:51.941Z,75.59
2023-03-05T12:20:06.192Z,76.56
2023-03-05T12:22:53.270Z,77.22
2023-03-05T12:25:55.166Z,77.77
2023-03-05T12:28:41.940Z,77.51
2023-03-05T12:31:37.726Z,77.80
2023-03-05T12:34:39.788Z,78.91
2023-03-05T12:37:25.887Z,78.48
2023-03-05T12:40:15.320Z,78.58
2023-03-05T12:43:30.015Z,79.23
2023-03-05T12:46:26.045Z,80.57
2023-03-05T12:49:18.320Z,81.21
2023-03-05T12:52:12.585Z,82.74
2023-03-05T12:55:23.393Z,81.61
2023-03-05T12:58:34.630Z,81.78
2023-03-05T13:01:34.125Z,81.58
2023-03-05T13:04:26.993Z,81.06
2023-03-05T13:07:16.505Z,81.62
2023-03-05T13:10:03.084Z,82.08
2023-03-05T13:12:53.023Z,81.59
2023-03-05T13:15:39.403Z,82.44
2023-03-05T13:18:30.999Z,82.49
2023-03-05T13:21:19.363Z,83.14
2023-03-05T13:24:16.387Z,84.30
2023-03-05T13:27:02.666Z,83.58
2023-03-05T13:29:53.194Z,83.74
2023-03-05T13:32:39.955Z,83.11
2023-03-05T13:35:26.552Z,82.68
2023-03-05T13:38:26.926Z,82.68
2023-03-05T13:41:25.441Z,83.64
2023-03-05T13:44:21.845Z,84.61
2023-03-05T13:47:18.930Z,84.09
2023-03-05T13:50:21.808Z,83.53
2023-03-05T13:53:19.033Z,85.33
2023-03-05T13:56:07.575Z,85.16
2023-03-05T13:58:56.194Z,85.49
2023-03-05T14:01:46.227Z,87.08
2023-03-05T14:04:37.518Z,85.57
2023-03-05T14:07:37.796Z,86.42
2023-03-05T14:10:37.197Z,87.08
2023-03-05T14:13:27.162Z,88.43
2023-03-05T14:16:24.079Z,89.41
2023-03-05T14:19:34.725Z,88.99
2023-03-05T14:22:51.943Z,88.25
2023-03-05T14:25:39.847Z,87.84
2023-03-05T14:28:29.239Z,87.83
2023-03-05T14:31:17.984Z,88.36
2023-03-05T14:34:07.242Z,88.21
2023-03-05T14:36:57.917Z,90.36
2023-03-05T14:39:51.292Z,89.99
2023-03-05T14:42:50.326Z,90.24
2023-03-05T14:45:39.616Z,88.01
2023-03-05T14:48:26.170Z,88.27
2023-03-05T14:51:12.896Z,88.66
2023-03-05T14:53:59.266Z,89.68
2023-03-05T14:56:45.697Z,88.85
2023-03-05T14:59:32.361Z,89.08
2023-03-05T15:02:21.893Z,88.15
2023-03-05T15:08:00.633Z,89.28
2023-03-05T15:10:47.529Z,89.35
2023-03-05T15:13:36.418Z,90.33
2023-03-05T15:16:23.576Z,90.47
2023-03-05T15:19:13.092Z,89.50
2023-03-05T15:21:59.886Z,90.91
2023-03-05T15:24:46.253Z,90.18
2023-03-05T15:27:32.380Z,91.33
2023-03-05T15:30:30.044Z,91.17
2023-03-05T15:33:17.536Z,90.81
2023-03-05T15:36:04.306Z,91.40
2023-03-05T15:38:50.815Z,91.31
2023-03-05T15:41:37.094Z,91.62
2023-03-05T15:44:23.408Z,91.83
2023-03-05T15:47:09.749Z,91.54
2023-03-05T15:49:55.921Z,92.67
2023-03-05T15:52:42.064Z,92.38
2023-03-05T15:55:28.600Z,91.36
2023-03-05T15:58:16.676Z,92.43
2023-03-05T16:01:02.783Z,92.39
2023-03-05T16:03:50.157Z,92.39
2023-03-05T16:06:36.872Z,93.21
2023-03-05T16:09:23.448Z,93.38
2023-03-05T16:12:15.109Z,93.49
2023-03-05T16:15:02.702Z,94.19
2023-03-05T16:17:54.379Z,95.95
2023-03-05T16:20:40.744Z,96.37
2023-03-05T16:23:26.925Z,96.91
2023-03-05T16:26:13.278Z,96.49
2023-03-05T16:28:59.685Z,97.64
2023-03-05T16:31:47.527Z,97.49
2023-03-05T16:34:34.436Z,97.79
2023-03-05T16:37:23.528Z,97.57
2023-03-05T16:40:12.062Z,97.64
2023-03-05T16:42:58.730Z,99.11
2023-03-05T16:45:45.114Z,97.86
2023-03-05T16:48:31.824Z,98.08
2023-03-05T16:51:19.921Z,97.49
2023-03-05T16:54:09.673Z,95.84
2023-03-05T16:59:49.733Z,97.55
2023-03-05T17:02:36.028Z,99.48
2023-03-05T17:05:22.237Z,100.00
2023-03-05T17:08:08.666Z,100.00
2023-03-05T17:10:55.073Z,99.64
2023-03-05T17:13:41.797Z,100.00
2023-03-05T17:16:28.280Z,100.00
2023-03-05T17:19:15.942Z,100.00
2023-03-05T17:22:03.331Z,100.00
2023-03-05T17:24:49.577Z,100.00
2023-03-05T17:27:37.204Z,100.00
2023-03-05T17:30:24.038Z,100.00
2023-03-05T17:33:11.227Z,100.00
2023-03-05T17:35:57.973Z,100.00
2023-03-05T17:38:45.418Z,100.00
2023-03-05T17:41:32.240Z,100.00
2023-03-05T17:44:18.850Z,100.00
2023-03-05T17:47:05.529Z,100.00
2023-03-05T17:49:51.900Z,100.00
2023-03-05T17:52:40.366Z,100.00
2023-03-05T17:55:27.325Z,100.00
2023-03-05T17:58:13.573Z,100.00
2023-03-05T18:01:00.424Z,100.00
2023-03-05T18:03:46.836Z,100.00
2023-03-05T18:06:33.303Z,100.00
2023-03-05T18:09:20.054Z,100.00
2023-03-05T18:12:06.625Z,100.00
2023-03-05T18:14:52.889Z,100.00
2023-03-05T18:17:39.471Z,100.00
2023-03-05T18:20:31.080Z,100.00
2023-03-05T18:23:17.497Z,100.00
2023-03-05T18:26:03.824Z,100.00
2023-03-05T18:28:50.355Z,100.00
2023-03-05T18:31:36.636Z,100.00
2023-03-05T18:34:24.990Z,100.00
2023-03-05T18:37:11.525Z,100.00
2023-03-05T18:39:58.039Z,100.00
2023-03-05T18:42:44.574Z,100.00
2023-03-05T18:45:32.335Z,100.00
2023-03-05T18:48:19.304Z,100.00
2023-03-05T18:51:13.958Z,100.00
2023-03-05T18:54:00.302Z,100.00
2023-03-05T18:56:46.568Z,100.00
2023-03-05T18:59:33.179Z,100.00
2023-03-05T19:02:19.862Z,100.00
2023-03-05T19:05:06.336Z,100.00
2023-03-05T19:07:52.989Z,100.00
2023-03-05T19:10:39.556Z,100.00
2023-03-05T19:13:43.643Z,100.00
2023-03-05T19:16:36.649Z,100.00
2023-03-05T19:19:24.609Z,100.00
2023-03-05T19:22:11.688Z,100.00
2023-03-05T19:24:58.396Z,100.00
2023-03-05T19:27:44.589Z,100.00
2023-03-05T19:30:31.254Z,100.00
2023-03-05T19:33:17.628Z,100.00
2023-03-05T19:36:08.051Z,100.00
2023-03-05T19:38:54.576Z,100.00
2023-03-05T19:41:41.122Z,100.00
2023-03-05T19:44:27.364Z,100.00
2023-03-05T19:47:13.776Z,100.00
2023-03-05T19:50:00.683Z,100.00
2023-03-05T19:52:47.011Z,100.00
2023-03-05T19:55:33.317Z,100.00
2023-03-05T19:58:20.175Z,100.00
2023-03-05T20:01:14.559Z,100.00
2023-03-05T20:04:03.892Z,100.00
2023-03-05T20:06:50.486Z,100.00
2023-03-05T20:09:36.901Z,100.00
2023-03-05T20:12:23.257Z,100.00
2023-03-05T20:15:09.921Z,100.00
2023-03-05T20:17:57.754Z,100.00
2023-03-05T20:20:44.615Z,100.00
2023-03-05T20:23:31.190Z,100.00
2023-03-05T20:26:17.646Z,100.00
2023-03-05T20:29:04.804Z,100.00
2023-03-05T20:31:52.873Z,100.00
2023-03-05T20:34:39.066Z,100.00
2023-03-05T20:37:31.494Z,100.00
2023-03-05T20:40:18.361Z,100.00
2023-03-05T20:43:04.550Z,100.00
2023-03-05T20:45:53.400Z,100.00
2023-03-05T20:48:39.999Z,100.00
2023-03-05T20:51:29.958Z,100.00
2023-03-05T20:54:16.410Z,100.00
2023-03-05T20:57:03.089Z,100.00
2023-03-05T20:59:49.351Z,100.00
2023-03-05T21:02:36.890Z,100.00
2023-03-05T21:05:25.492Z,100.00
2023-03-05T21:08:11.828Z,100.00
2023-03-05T21:10:59.401Z,100.00
2023-03-05T21:13:45.955Z,100.00
2023-03-05T21:16:32.637Z,100.00
2023-03-05T21:19:19.257Z,100.00
2023-03-05T21:22:05.975Z,100.00
2023-03-05T21:25:11.020Z,100.00
2023-03-05T21:28:17.752Z,100.00
2023-03-05T21:35:45.784Z,100.00
2023-03-05T21:38:33.913Z,100.00
2023-03-05T21:41:20.494Z,100.00
2023-03-05T21:44:07.055Z,100.00
2023-03-05T21:46:53.381Z,100.00
2023-03-05T21:49:39.567Z,100.00
2023-03-05T21:52:26.123Z,100.00
2023-03-05T21:55:14.766Z,100.00
2023-03-05T21:58:01.428Z,100.00
2023-03-05T22:00:47.918Z,100.00
2023-03-05T22:03:34.105Z,100.00
2023-03-05T22:06:20.861Z,100.00
2023-03-05T22:09:07.310Z,100.00
2023-03-05T22:11:53.614Z,100.00
2023-03-05T22:14:39.717Z,100.00
2023-03-05T22:17:26.292Z,100.00
2023-03-05T22:20:12.735Z,100.00
2023-03-05T22:22:59.274Z,100.00
2023-03-05T22:25:45.490Z,100.00
2023-03-05T22:28:32.908Z,100.00
2023-03-05T22:31:21.742Z,100.00
2023-03-05T22:34:07.860Z,100.00
2023-03-05T22:36:54.487Z,100.00
2023-03-05T22:39:40.699Z,100.00
2023-03-05T22:42:27.392Z,100.00
2023-03-05T22:45:17.027Z,100.00
2023-03-05T22:48:03.682Z,100.00
2023-03-05T22:50:55.463Z,100.00
2023-03-05T22:53:42.018Z,100.00
2023-03-05T22:56:28.303Z,100.00
2023-03-05T22:59:14.529Z,100.00
2023-03-05T23:02:00.927Z,100.00
2023-03-05T23:04:57.223Z,100.00
2023-03-05T23:07:44.671Z,100.00
2023-03-05T23:10:31.272Z,100.00
2023-03-05T23:13:17.575Z,100.00
2023-03-05T23:16:04.165Z,100.00
2023-03-05T23:18:50.349Z,100.00
2023-03-05T23:21:36.741Z,100.00
2023-03-05T23:24:23.377Z,100.00
2023-03-05T23:27:13.597Z,100.00
2023-03-05T23:30:24.144Z,100.00
2023-03-05T23:33:19.480Z,100.00
2023-03-05T23:36:05.860Z,100.00
2023-03-05T23:38:57.338Z,100.00
2023-03-05T23:41:43.696Z,100.00
2023-03-05T23:44:29.983Z,100.00
2023-03-05T23:47:16.083Z,100.00
2023-03-05T23:50:04.937Z,100.00
2023-03-05T23:52:51.943Z,100.00
2023-03-05T23:55:43.551Z,100.00
2023-03-05T23:58:29.893Z,100.00
